sensor_id;sensor_type;location;lat;lon;timestamp;P1;durP1;ratioP1;P2;durP2;ratioP2
60336;SDS011;46978;50.288;28.624;2023-12-28T00:00:26;10.59;;;4.43;;
60336;SDS011;46978;50.288;28.624;2023-12-28T00:01:27;5.89;;;3.02;;
60336;SDS011;46978;50.288;28.624;2023-12-28T00:02:29;5.15;;;2.93;;
60336;SDS011;46978;50.288;28.624;2023-12-28T00:03:31;8.65;;;3.55;;
60336;SDS011;46978;50.288;28.624;2023-12-28T00:04:32;6.66;;;3.32;;
60336;SDS011;46978;50.288;28.624;2023-12-28T00:05:34;7.99;;;2.99;;
60336;SDS011;46978;50.288;28.624;2023-12-28T00:06:36;7.91;;;3.39;;
60336;SDS011;46978;50.288;28.624;2023-12-28T00:07:37;6.81;;;3.39;;
60336;SDS011;46978;50.288;28.624;2023-12-28T00:08:40;4.95;;;2.87;;
60336;SDS011;46978;50.288;28.624;2023-12-28T00:09:41;8.81;;;2.98;;
60336;SDS011;46978;50.288;28.624;2023-12-28T00:10:43;6.21;;;3.03;;
60336;SDS011;46978;50.288;28.624;2023-12-28T00:11:45;7.46;;;3.86;;
60336;SDS011;46978;50.288;28.624;2023-12-28T00:12:47;9.41;;;5.05;;
60336;SDS011;46978;50.288;28.624;2023-12-28T00:13:48;10.98;;;5.55;;
60336;SDS011;46978;50.288;28.624;2023-12-28T00:14:51;10.64;;;6.75;;
60336;SDS011;46978;50.288;28.624;2023-12-28T00:15:52;10.07;;;6.85;;
60336;SDS011;46978;50.288;28.624;2023-12-28T00:16:54;11.84;;;6.52;;
60336;SDS011;46978;50.288;28.624;2023-12-28T00:17:56;10.44;;;5.94;;
60336;SDS011;46978;50.288;28.624;2023-12-28T00:18:57;8.35;;;4.43;;
60336;SDS011;46978;50.288;28.624;2023-12-28T00:19:59;9.12;;;3.79;;
60336;SDS011;46978;50.288;28.624;2023-12-28T00:21:01;8.71;;;3.83;;
60336;SDS011;46978;50.288;28.624;2023-12-28T00:22:03;8.29;;;4.54;;
60336;SDS011;46978;50.288;28.624;2023-12-28T00:23:04;8.34;;;3.67;;
60336;SDS011;46978;50.288;28.624;2023-12-28T00:24:06;7.76;;;3.41;;
60336;SDS011;46978;50.288;28.624;2023-12-28T00:25:08;9.49;;;3.39;;
60336;SDS011;46978;50.288;28.624;2023-12-28T00:26:10;11.71;;;4.35;;
60336;SDS011;46978;50.288;28.624;2023-12-28T00:27:12;9.01;;;4.10;;
60336;SDS011;46978;50.288;28.624;2023-12-28T00:28:14;7.54;;;3.93;;
60336;SDS011;46978;50.288;28.624;2023-12-28T00:29:15;7.80;;;3.89;;
60336;SDS011;46978;50.288;28.624;2023-12-28T00:30:17;6.79;;;3.63;;
60336;SDS011;46978;50.288;28.624;2023-12-28T00:31:19;9.18;;;3.22;;
60336;SDS011;46978;50.288;28.624;2023-12-28T00:32:21;7.48;;;3.34;;
60336;SDS011;46978;50.288;28.624;2023-12-28T00:33:22;8.49;;;2.94;;
60336;SDS011;46978;50.288;28.624;2023-12-28T00:34:24;5.86;;;2.86;;
60336;SDS011;46978;50.288;28.624;2023-12-28T00:35:26;7.51;;;3.09;;
60336;SDS011;46978;50.288;28.624;2023-12-28T00:36:28;4.90;;;2.97;;
60336;SDS011;46978;50.288;28.624;2023-12-28T00:37:29;7.84;;;2.90;;
60336;SDS011;46978;50.288;28.624;2023-12-28T00:38:31;5.26;;;2.44;;
60336;SDS011;46978;50.288;28.624;2023-12-28T00:39:32;7.51;;;2.91;;
60336;SDS011;46978;50.288;28.624;2023-12-28T00:40:34;8.49;;;2.76;;
60336;SDS011;46978;50.288;28.624;2023-12-28T00:41:36;6.23;;;2.67;;
60336;SDS011;46978;50.288;28.624;2023-12-28T00:42:38;6.06;;;3.03;;
60336;SDS011;46978;50.288;28.624;2023-12-28T00:43:39;6.11;;;2.72;;
60336;SDS011;46978;50.288;28.624;2023-12-28T00:44:41;7.78;;;3.36;;
60336;SDS011;46978;50.288;28.624;2023-12-28T00:45:43;6.56;;;2.86;;
60336;SDS011;46978;50.288;28.624;2023-12-28T00:46:44;5.79;;;2.79;;
60336;SDS011;46978;50.288;28.624;2023-12-28T00:47:46;5.20;;;2.44;;
60336;SDS011;46978;50.288;28.624;2023-12-28T00:48:48;5.82;;;2.70;;
60336;SDS011;46978;50.288;28.624;2023-12-28T00:49:49;7.08;;;2.85;;
60336;SDS011;46978;50.288;28.624;2023-12-28T00:50:52;6.76;;;2.93;;
60336;SDS011;46978;50.288;28.624;2023-12-28T00:51:54;6.16;;;3.15;;
60336;SDS011;46978;50.288;28.624;2023-12-28T00:52:56;5.79;;;2.94;;
60336;SDS011;46978;50.288;28.624;2023-12-28T00:53:57;7.86;;;3.15;;
60336;SDS011;46978;50.288;28.624;2023-12-28T00:54:59;6.55;;;3.36;;
60336;SDS011;46978;50.288;28.624;2023-12-28T00:56:00;4.49;;;2.41;;
60336;SDS011;46978;50.288;28.624;2023-12-28T00:57:05;7.29;;;2.85;;
60336;SDS011;46978;50.288;28.624;2023-12-28T00:58:07;5.96;;;2.59;;
60336;SDS011;46978;50.288;28.624;2023-12-28T00:59:08;7.31;;;3.17;;
60336;SDS011;46978;50.288;28.624;2023-12-28T01:00:11;7.04;;;3.06;;
60336;SDS011;46978;50.288;28.624;2023-12-28T01:01:13;6.73;;;3.19;;
60336;SDS011;46978;50.288;28.624;2023-12-28T01:02:14;7.70;;;2.84;;
60336;SDS011;46978;50.288;28.624;2023-12-28T01:03:16;5.87;;;2.64;;
60336;SDS011;46978;50.288;28.624;2023-12-28T01:04:18;6.29;;;3.06;;
60336;SDS011;46978;50.288;28.624;2023-12-28T01:05:19;8.38;;;3.10;;
60336;SDS011;46978;50.288;28.624;2023-12-28T01:06:23;6.34;;;3.06;;
60336;SDS011;46978;50.288;28.624;2023-12-28T01:07:24;6.17;;;2.99;;
60336;SDS011;46978;50.288;28.624;2023-12-28T01:08:26;6.91;;;2.70;;
60336;SDS011;46978;50.288;28.624;2023-12-28T01:09:28;5.24;;;3.16;;
60336;SDS011;46978;50.288;28.624;2023-12-28T01:10:30;6.01;;;3.05;;
60336;SDS011;46978;50.288;28.624;2023-12-28T01:11:32;5.76;;;3.40;;
60336;SDS011;46978;50.288;28.624;2023-12-28T01:12:33;8.10;;;3.60;;
60336;SDS011;46978;50.288;28.624;2023-12-28T01:13:35;6.23;;;3.24;;
60336;SDS011;46978;50.288;28.624;2023-12-28T01:14:37;5.83;;;3.20;;
60336;SDS011;46978;50.288;28.624;2023-12-28T01:15:39;8.95;;;3.67;;
60336;SDS011;46978;50.288;28.624;2023-12-28T01:16:40;6.58;;;3.31;;
60336;SDS011;46978;50.288;28.624;2023-12-28T01:17:42;5.76;;;3.11;;
60336;SDS011;46978;50.288;28.624;2023-12-28T01:18:44;8.13;;;3.25;;
60336;SDS011;46978;50.288;28.624;2023-12-28T01:19:46;6.13;;;3.39;;
60336;SDS011;46978;50.288;28.624;2023-12-28T01:20:48;9.06;;;3.44;;
60336;SDS011;46978;50.288;28.624;2023-12-28T01:21:49;7.11;;;3.47;;
60336;SDS011;46978;50.288;28.624;2023-12-28T01:22:51;6.68;;;3.16;;
60336;SDS011;46978;50.288;28.624;2023-12-28T01:23:53;6.88;;;3.91;;
60336;SDS011;46978;50.288;28.624;2023-12-28T01:24:54;9.51;;;4.04;;
60336;SDS011;46978;50.288;28.624;2023-12-28T01:25:56;7.65;;;3.63;;
60336;SDS011;46978;50.288;28.624;2023-12-28T01:26:58;7.42;;;3.77;;
60336;SDS011;46978;50.288;28.624;2023-12-28T01:28:00;6.95;;;3.43;;
60336;SDS011;46978;50.288;28.624;2023-12-28T01:29:01;7.46;;;3.41;;
60336;SDS011;46978;50.288;28.624;2023-12-28T01:30:04;7.38;;;3.84;;
60336;SDS011;46978;50.288;28.624;2023-12-28T01:31:07;6.79;;;3.29;;
60336;SDS011;46978;50.288;28.624;2023-12-28T01:32:08;6.81;;;3.14;;
60336;SDS011;46978;50.288;28.624;2023-12-28T01:33:10;5.99;;;3.52;;
60336;SDS011;46978;50.288;28.624;2023-12-28T01:34:12;4.97;;;3.27;;
60336;SDS011;46978;50.288;28.624;2023-12-28T01:35:14;6.80;;;3.29;;
60336;SDS011;46978;50.288;28.624;2023-12-28T01:36:20;8.89;;;3.19;;
60336;SDS011;46978;50.288;28.624;2023-12-28T01:37:20;5.81;;;3.18;;
60336;SDS011;46978;50.288;28.624;2023-12-28T01:38:21;9.78;;;3.48;;
60336;SDS011;46978;50.288;28.624;2023-12-28T01:39:23;6.18;;;3.10;;
60336;SDS011;46978;50.288;28.624;2023-12-28T01:40:25;7.44;;;3.61;;
60336;SDS011;46978;50.288;28.624;2023-12-28T01:41:27;9.33;;;3.39;;
60336;SDS011;46978;50.288;28.624;2023-12-28T01:42:28;6.79;;;3.09;;
60336;SDS011;46978;50.288;28.624;2023-12-28T01:43:30;6.66;;;3.20;;
60336;SDS011;46978;50.288;28.624;2023-12-28T01:44:32;7.73;;;3.51;;
60336;SDS011;46978;50.288;28.624;2023-12-28T01:45:34;8.24;;;3.31;;
60336;SDS011;46978;50.288;28.624;2023-12-28T01:46:35;10.21;;;3.60;;
60336;SDS011;46978;50.288;28.624;2023-12-28T01:47:37;5.91;;;3.14;;
60336;SDS011;46978;50.288;28.624;2023-12-28T01:48:39;8.27;;;3.21;;
60336;SDS011;46978;50.288;28.624;2023-12-28T01:49:42;6.50;;;3.31;;
60336;SDS011;46978;50.288;28.624;2023-12-28T01:50:45;10.74;;;4.03;;
60336;SDS011;46978;50.288;28.624;2023-12-28T01:51:47;8.06;;;3.26;;
60336;SDS011;46978;50.288;28.624;2023-12-28T01:52:50;7.33;;;3.47;;
60336;SDS011;46978;50.288;28.624;2023-12-28T01:53:52;5.89;;;3.55;;
60336;SDS011;46978;50.288;28.624;2023-12-28T01:54:55;7.40;;;3.73;;
60336;SDS011;46978;50.288;28.624;2023-12-28T01:55:57;7.63;;;3.81;;
60336;SDS011;46978;50.288;28.624;2023-12-28T01:57:00;10.47;;;3.84;;
60336;SDS011;46978;50.288;28.624;2023-12-28T01:58:04;6.39;;;3.31;;
60336;SDS011;46978;50.288;28.624;2023-12-28T01:59:05;6.47;;;3.39;;
60336;SDS011;46978;50.288;28.624;2023-12-28T02:00:08;7.67;;;3.52;;
60336;SDS011;46978;50.288;28.624;2023-12-28T02:01:10;5.74;;;3.33;;
60336;SDS011;46978;50.288;28.624;2023-12-28T02:02:13;7.88;;;3.57;;
60336;SDS011;46978;50.288;28.624;2023-12-28T02:03:15;6.23;;;3.32;;
60336;SDS011;46978;50.288;28.624;2023-12-28T02:04:17;6.99;;;3.65;;
60336;SDS011;46978;50.288;28.624;2023-12-28T02:05:19;6.62;;;3.55;;
60336;SDS011;46978;50.288;28.624;2023-12-28T02:06:23;7.03;;;3.58;;
60336;SDS011;46978;50.288;28.624;2023-12-28T02:07:25;7.44;;;3.60;;
60336;SDS011;46978;50.288;28.624;2023-12-28T02:08:27;9.20;;;3.65;;
60336;SDS011;46978;50.288;28.624;2023-12-28T02:09:28;7.22;;;3.37;;
60336;SDS011;46978;50.288;28.624;2023-12-28T02:10:30;8.45;;;3.63;;
60336;SDS011;46978;50.288;28.624;2023-12-28T02:11:32;7.67;;;3.76;;
60336;SDS011;46978;50.288;28.624;2023-12-28T02:12:34;8.61;;;3.80;;
60336;SDS011;46978;50.288;28.624;2023-12-28T02:13:36;8.03;;;3.74;;
60336;SDS011;46978;50.288;28.624;2023-12-28T02:14:38;7.55;;;4.17;;
60336;SDS011;46978;50.288;28.624;2023-12-28T02:15:40;7.14;;;3.87;;
60336;SDS011;46978;50.288;28.624;2023-12-28T02:16:44;6.45;;;4.53;;
60336;SDS011;46978;50.288;28.624;2023-12-28T02:19:03;8.96;;;4.01;;
60336;SDS011;46978;50.288;28.624;2023-12-28T02:20:07;8.74;;;4.43;;
60336;SDS011;46978;50.288;28.624;2023-12-28T02:21:12;9.56;;;3.89;;
60336;SDS011;46978;50.288;28.624;2023-12-28T02:22:15;9.62;;;4.35;;
60336;SDS011;46978;50.288;28.624;2023-12-28T02:23:17;11.95;;;5.32;;
60336;SDS011;46978;50.288;28.624;2023-12-28T02:24:19;10.29;;;5.31;;
60336;SDS011;46978;50.288;28.624;2023-12-28T02:25:20;11.14;;;5.14;;
60336;SDS011;46978;50.288;28.624;2023-12-28T02:26:22;11.03;;;5.65;;
60336;SDS011;46978;50.288;28.624;2023-12-28T02:27:24;11.59;;;5.77;;
60336;SDS011;46978;50.288;28.624;2023-12-28T02:28:26;15.36;;;6.01;;
60336;SDS011;46978;50.288;28.624;2023-12-28T02:29:28;8.84;;;4.64;;
60336;SDS011;46978;50.288;28.624;2023-12-28T02:30:30;12.57;;;6.25;;
60336;SDS011;46978;50.288;28.624;2023-12-28T02:31:35;10.74;;;4.45;;
60336;SDS011;46978;50.288;28.624;2023-12-28T02:33:59;10.53;;;4.40;;
60336;SDS011;46978;50.288;28.624;2023-12-28T02:35:06;8.19;;;4.81;;
60336;SDS011;46978;50.288;28.624;2023-12-28T02:36:19;9.78;;;5.02;;
60336;SDS011;46978;50.288;28.624;2023-12-28T02:37:24;14.65;;;6.64;;
60336;SDS011;46978;50.288;28.624;2023-12-28T02:38:28;11.81;;;6.63;;
60336;SDS011;46978;50.288;28.624;2023-12-28T02:39:32;11.08;;;5.50;;
60336;SDS011;46978;50.288;28.624;2023-12-28T02:40:39;11.22;;;4.60;;
60336;SDS011;46978;50.288;28.624;2023-12-28T02:41:39;10.58;;;5.50;;
60336;SDS011;46978;50.288;28.624;2023-12-28T02:42:40;14.17;;;6.25;;
60336;SDS011;46978;50.288;28.624;2023-12-28T02:43:42;10.28;;;5.60;;
60336;SDS011;46978;50.288;28.624;2023-12-28T02:44:44;12.78;;;5.23;;
60336;SDS011;46978;50.288;28.624;2023-12-28T02:45:46;11.09;;;5.95;;
60336;SDS011;46978;50.288;28.624;2023-12-28T02:46:48;11.05;;;5.26;;
60336;SDS011;46978;50.288;28.624;2023-12-28T02:47:49;12.63;;;5.73;;
60336;SDS011;46978;50.288;28.624;2023-12-28T02:48:51;10.21;;;5.73;;
60336;SDS011;46978;50.288;28.624;2023-12-28T02:49:53;10.92;;;5.68;;
60336;SDS011;46978;50.288;28.624;2023-12-28T02:50:54;14.38;;;5.09;;
60336;SDS011;46978;50.288;28.624;2023-12-28T02:51:56;12.06;;;6.59;;
60336;SDS011;46978;50.288;28.624;2023-12-28T02:52:58;12.63;;;6.59;;
60336;SDS011;46978;50.288;28.624;2023-12-28T02:54:01;10.96;;;6.56;;
60336;SDS011;46978;50.288;28.624;2023-12-28T02:55:03;13.86;;;6.84;;
60336;SDS011;46978;50.288;28.624;2023-12-28T02:56:05;15.90;;;6.88;;
60336;SDS011;46978;50.288;28.624;2023-12-28T02:57:07;14.45;;;7.57;;
60336;SDS011;46978;50.288;28.624;2023-12-28T02:58:09;14.56;;;7.86;;
60336;SDS011;46978;50.288;28.624;2023-12-28T02:59:11;16.55;;;7.67;;
60336;SDS011;46978;50.288;28.624;2023-12-28T03:00:14;15.32;;;8.10;;
60336;SDS011;46978;50.288;28.624;2023-12-28T03:01:17;16.75;;;8.45;;
60336;SDS011;46978;50.288;28.624;2023-12-28T03:02:18;15.64;;;7.56;;
60336;SDS011;46978;50.288;28.624;2023-12-28T03:03:20;15.76;;;7.56;;
60336;SDS011;46978;50.288;28.624;2023-12-28T03:04:22;16.34;;;7.36;;
60336;SDS011;46978;50.288;28.624;2023-12-28T03:05:23;15.16;;;7.19;;
60336;SDS011;46978;50.288;28.624;2023-12-28T03:06:25;13.55;;;6.57;;
60336;SDS011;46978;50.288;28.624;2023-12-28T03:07:27;13.66;;;6.53;;
60336;SDS011;46978;50.288;28.624;2023-12-28T03:08:28;12.39;;;6.74;;
60336;SDS011;46978;50.288;28.624;2023-12-28T03:09:30;14.04;;;6.82;;
60336;SDS011;46978;50.288;28.624;2023-12-28T03:10:32;11.35;;;6.23;;
60336;SDS011;46978;50.288;28.624;2023-12-28T03:11:34;13.51;;;6.54;;
60336;SDS011;46978;50.288;28.624;2023-12-28T03:12:35;10.29;;;6.38;;
60336;SDS011;46978;50.288;28.624;2023-12-28T03:13:37;13.29;;;6.54;;
60336;SDS011;46978;50.288;28.624;2023-12-28T03:14:38;14.37;;;6.17;;
60336;SDS011;46978;50.288;28.624;2023-12-28T03:15:40;10.06;;;5.97;;
60336;SDS011;46978;50.288;28.624;2023-12-28T03:16:42;13.87;;;6.28;;
60336;SDS011;46978;50.288;28.624;2023-12-28T03:17:44;15.31;;;6.63;;
60336;SDS011;46978;50.288;28.624;2023-12-28T03:18:45;13.52;;;6.11;;
60336;SDS011;46978;50.288;28.624;2023-12-28T03:19:47;12.00;;;5.79;;
60336;SDS011;46978;50.288;28.624;2023-12-28T03:20:48;11.70;;;6.08;;
60336;SDS011;46978;50.288;28.624;2023-12-28T03:21:50;13.02;;;6.01;;
60336;SDS011;46978;50.288;28.624;2023-12-28T03:22:52;12.41;;;5.31;;
60336;SDS011;46978;50.288;28.624;2023-12-28T03:23:53;9.65;;;5.96;;
60336;SDS011;46978;50.288;28.624;2023-12-28T03:24:55;8.94;;;4.79;;
60336;SDS011;46978;50.288;28.624;2023-12-28T03:25:57;9.49;;;4.69;;
60336;SDS011;46978;50.288;28.624;2023-12-28T03:26:59;7.25;;;4.29;;
60336;SDS011;46978;50.288;28.624;2023-12-28T03:28:00;9.75;;;4.56;;
60336;SDS011;46978;50.288;28.624;2023-12-28T03:29:02;8.58;;;4.49;;
60336;SDS011;46978;50.288;28.624;2023-12-28T03:30:04;11.77;;;4.36;;
60336;SDS011;46978;50.288;28.624;2023-12-28T03:31:06;7.73;;;4.61;;
60336;SDS011;46978;50.288;28.624;2023-12-28T03:32:08;7.41;;;3.89;;
60336;SDS011;46978;50.288;28.624;2023-12-28T03:33:10;7.55;;;3.85;;
60336;SDS011;46978;50.288;28.624;2023-12-28T03:34:11;7.42;;;4.14;;
60336;SDS011;46978;50.288;28.624;2023-12-28T03:35:13;7.50;;;3.91;;
60336;SDS011;46978;50.288;28.624;2023-12-28T03:36:18;5.47;;;3.37;;
60336;SDS011;46978;50.288;28.624;2023-12-28T03:37:20;7.54;;;4.05;;
60336;SDS011;46978;50.288;28.624;2023-12-28T03:38:22;8.20;;;4.21;;
60336;SDS011;46978;50.288;28.624;2023-12-28T03:39:24;8.79;;;4.23;;
60336;SDS011;46978;50.288;28.624;2023-12-28T03:40:26;5.36;;;3.51;;
60336;SDS011;46978;50.288;28.624;2023-12-28T03:41:28;8.08;;;3.86;;
60336;SDS011;46978;50.288;28.624;2023-12-28T03:42:29;7.38;;;3.59;;
60336;SDS011;46978;50.288;28.624;2023-12-28T03:43:31;8.26;;;4.08;;
60336;SDS011;46978;50.288;28.624;2023-12-28T03:44:32;7.46;;;3.92;;
60336;SDS011;46978;50.288;28.624;2023-12-28T03:45:34;8.63;;;4.00;;
60336;SDS011;46978;50.288;28.624;2023-12-28T03:46:36;8.60;;;3.73;;
60336;SDS011;46978;50.288;28.624;2023-12-28T03:47:38;7.41;;;3.41;;
60336;SDS011;46978;50.288;28.624;2023-12-28T03:48:39;7.90;;;4.17;;
60336;SDS011;46978;50.288;28.624;2023-12-28T03:49:42;8.83;;;3.86;;
60336;SDS011;46978;50.288;28.624;2023-12-28T03:50:43;7.36;;;4.15;;
60336;SDS011;46978;50.288;28.624;2023-12-28T03:51:45;8.70;;;4.42;;
60336;SDS011;46978;50.288;28.624;2023-12-28T03:52:47;6.31;;;3.30;;
60336;SDS011;46978;50.288;28.624;2023-12-28T03:53:48;6.99;;;3.81;;
60336;SDS011;46978;50.288;28.624;2023-12-28T03:54:50;7.36;;;3.91;;
60336;SDS011;46978;50.288;28.624;2023-12-28T03:55:52;7.08;;;3.64;;
60336;SDS011;46978;50.288;28.624;2023-12-28T03:56:54;8.15;;;4.33;;
60336;SDS011;46978;50.288;28.624;2023-12-28T03:57:55;8.81;;;3.66;;
60336;SDS011;46978;50.288;28.624;2023-12-28T03:58:57;7.89;;;3.69;;
60336;SDS011;46978;50.288;28.624;2023-12-28T03:59:59;7.10;;;3.80;;
60336;SDS011;46978;50.288;28.624;2023-12-28T04:01:01;10.09;;;3.97;;
60336;SDS011;46978;50.288;28.624;2023-12-28T04:02:02;8.54;;;3.80;;
60336;SDS011;46978;50.288;28.624;2023-12-28T04:03:04;9.84;;;4.08;;
60336;SDS011;46978;50.288;28.624;2023-12-28T04:04:06;8.73;;;3.80;;
60336;SDS011;46978;50.288;28.624;2023-12-28T04:05:08;7.46;;;4.11;;
60336;SDS011;46978;50.288;28.624;2023-12-28T04:06:10;9.40;;;4.90;;
60336;SDS011;46978;50.288;28.624;2023-12-28T04:07:13;8.96;;;4.76;;
60336;SDS011;46978;50.288;28.624;2023-12-28T04:08:14;8.90;;;4.65;;
60336;SDS011;46978;50.288;28.624;2023-12-28T04:09:16;9.31;;;5.20;;
60336;SDS011;46978;50.288;28.624;2023-12-28T04:10:28;15.06;;;5.30;;
60336;SDS011;46978;50.288;28.624;2023-12-28T04:11:23;11.91;;;5.15;;
60336;SDS011;46978;50.288;28.624;2023-12-28T04:12:25;13.99;;;6.31;;
60336;SDS011;46978;50.288;28.624;2023-12-28T04:13:27;11.79;;;6.38;;
60336;SDS011;46978;50.288;28.624;2023-12-28T04:14:28;15.94;;;7.59;;
60336;SDS011;46978;50.288;28.624;2023-12-28T04:15:30;17.18;;;8.11;;
60336;SDS011;46978;50.288;28.624;2023-12-28T04:16:32;17.77;;;8.41;;
60336;SDS011;46978;50.288;28.624;2023-12-28T04:17:34;19.78;;;8.47;;
60336;SDS011;46978;50.288;28.624;2023-12-28T04:18:35;18.02;;;9.42;;
60336;SDS011;46978;50.288;28.624;2023-12-28T04:19:37;18.49;;;9.09;;
60336;SDS011;46978;50.288;28.624;2023-12-28T04:20:39;18.17;;;9.40;;
60336;SDS011;46978;50.288;28.624;2023-12-28T04:21:45;18.79;;;9.60;;
60336;SDS011;46978;50.288;28.624;2023-12-28T04:22:47;16.11;;;8.46;;
60336;SDS011;46978;50.288;28.624;2023-12-28T04:23:48;16.56;;;8.25;;
60336;SDS011;46978;50.288;28.624;2023-12-28T04:24:50;18.31;;;8.66;;
60336;SDS011;46978;50.288;28.624;2023-12-28T04:25:52;16.18;;;7.80;;
60336;SDS011;46978;50.288;28.624;2023-12-28T04:26:54;16.47;;;7.43;;
60336;SDS011;46978;50.288;28.624;2023-12-28T04:27:56;14.73;;;8.12;;
60336;SDS011;46978;50.288;28.624;2023-12-28T04:28:57;13.03;;;7.24;;
60336;SDS011;46978;50.288;28.624;2023-12-28T04:29:59;13.52;;;6.70;;
60336;SDS011;46978;50.288;28.624;2023-12-28T04:31:05;13.01;;;6.58;;
60336;SDS011;46978;50.288;28.624;2023-12-28T04:32:07;15.72;;;6.97;;
60336;SDS011;46978;50.288;28.624;2023-12-28T04:33:09;14.31;;;7.10;;
60336;SDS011;46978;50.288;28.624;2023-12-28T04:34:11;10.49;;;5.96;;
60336;SDS011;46978;50.288;28.624;2023-12-28T04:35:12;10.51;;;5.64;;
60336;SDS011;46978;50.288;28.624;2023-12-28T04:36:15;11.03;;;6.11;;
60336;SDS011;46978;50.288;28.624;2023-12-28T04:37:17;11.06;;;5.24;;
60336;SDS011;46978;50.288;28.624;2023-12-28T04:38:18;8.69;;;5.38;;
60336;SDS011;46978;50.288;28.624;2023-12-28T04:39:20;10.89;;;5.88;;
60336;SDS011;46978;50.288;28.624;2023-12-28T04:40:23;13.94;;;5.38;;
60336;SDS011;46978;50.288;28.624;2023-12-28T04:41:25;8.57;;;5.19;;
60336;SDS011;46978;50.288;28.624;2023-12-28T04:42:26;10.82;;;5.01;;
60336;SDS011;46978;50.288;28.624;2023-12-28T04:43:28;11.08;;;5.05;;
60336;SDS011;46978;50.288;28.624;2023-12-28T04:44:29;9.60;;;4.35;;
60336;SDS011;46978;50.288;28.624;2023-12-28T04:45:31;13.12;;;4.95;;
60336;SDS011;46978;50.288;28.624;2023-12-28T04:46:37;10.09;;;4.76;;
60336;SDS011;46978;50.288;28.624;2023-12-28T04:47:40;11.69;;;4.65;;
60336;SDS011;46978;50.288;28.624;2023-12-28T04:48:41;7.67;;;4.44;;
60336;SDS011;46978;50.288;28.624;2023-12-28T04:49:43;9.53;;;5.11;;
60336;SDS011;46978;50.288;28.624;2023-12-28T04:50:44;8.51;;;4.60;;
60336;SDS011;46978;50.288;28.624;2023-12-28T04:51:46;8.37;;;4.41;;
60336;SDS011;46978;50.288;28.624;2023-12-28T04:52:48;9.16;;;5.34;;
60336;SDS011;46978;50.288;28.624;2023-12-28T04:53:49;9.45;;;4.81;;
60336;SDS011;46978;50.288;28.624;2023-12-28T04:54:51;8.51;;;4.74;;
60336;SDS011;46978;50.288;28.624;2023-12-28T04:55:52;10.31;;;4.79;;
60336;SDS011;46978;50.288;28.624;2023-12-28T04:56:57;15.86;;;5.14;;
60336;SDS011;46978;50.288;28.624;2023-12-28T04:57:58;8.55;;;4.52;;
60336;SDS011;46978;50.288;28.624;2023-12-28T04:59:00;10.86;;;5.55;;
60336;SDS011;46978;50.288;28.624;2023-12-28T05:00:02;10.05;;;5.23;;
60336;SDS011;46978;50.288;28.624;2023-12-28T05:01:04;12.31;;;5.53;;
60336;SDS011;46978;50.288;28.624;2023-12-28T05:02:06;9.89;;;5.20;;
60336;SDS011;46978;50.288;28.624;2023-12-28T05:03:08;11.67;;;5.56;;
60336;SDS011;46978;50.288;28.624;2023-12-28T05:04:10;9.70;;;5.43;;
60336;SDS011;46978;50.288;28.624;2023-12-28T05:05:12;7.97;;;4.72;;
60336;SDS011;46978;50.288;28.624;2023-12-28T05:06:15;10.27;;;5.28;;
60336;SDS011;46978;50.288;28.624;2023-12-28T05:07:16;13.76;;;5.81;;
60336;SDS011;46978;50.288;28.624;2023-12-28T05:08:18;11.90;;;5.59;;
60336;SDS011;46978;50.288;28.624;2023-12-28T05:09:20;11.23;;;5.17;;
60336;SDS011;46978;50.288;28.624;2023-12-28T05:10:22;10.61;;;5.34;;
60336;SDS011;46978;50.288;28.624;2023-12-28T05:11:23;12.06;;;6.26;;
60336;SDS011;46978;50.288;28.624;2023-12-28T05:12:25;10.83;;;5.61;;
60336;SDS011;46978;50.288;28.624;2023-12-28T05:13:27;13.20;;;5.57;;
60336;SDS011;46978;50.288;28.624;2023-12-28T05:14:28;14.63;;;5.84;;
60336;SDS011;46978;50.288;28.624;2023-12-28T05:15:30;13.00;;;6.55;;
60336;SDS011;46978;50.288;28.624;2023-12-28T05:16:32;12.14;;;6.31;;
60336;SDS011;46978;50.288;28.624;2023-12-28T05:17:33;15.74;;;7.09;;
60336;SDS011;46978;50.288;28.624;2023-12-28T05:18:35;12.78;;;6.37;;
60336;SDS011;46978;50.288;28.624;2023-12-28T05:19:37;14.06;;;5.96;;
60336;SDS011;46978;50.288;28.624;2023-12-28T05:20:38;10.21;;;5.59;;
60336;SDS011;46978;50.288;28.624;2023-12-28T05:21:40;10.72;;;5.62;;
60336;SDS011;46978;50.288;28.624;2023-12-28T05:22:42;12.73;;;6.13;;
60336;SDS011;46978;50.288;28.624;2023-12-28T05:24:48;8.59;;;5.29;;
60336;SDS011;46978;50.288;28.624;2023-12-28T05:25:49;8.70;;;5.12;;
60336;SDS011;46978;50.288;28.624;2023-12-28T05:26:51;8.51;;;4.91;;
60336;SDS011;46978;50.288;28.624;2023-12-28T05:27:53;12.26;;;5.23;;
60336;SDS011;46978;50.288;28.624;2023-12-28T05:28:54;11.01;;;5.28;;
60336;SDS011;46978;50.288;28.624;2023-12-28T05:29:56;11.84;;;5.35;;
60336;SDS011;46978;50.288;28.624;2023-12-28T05:30:58;9.18;;;5.18;;
60336;SDS011;46978;50.288;28.624;2023-12-28T05:31:59;12.59;;;5.21;;
60336;SDS011;46978;50.288;28.624;2023-12-28T05:33:01;9.57;;;4.86;;
60336;SDS011;46978;50.288;28.624;2023-12-28T05:34:03;10.50;;;5.56;;
60336;SDS011;46978;50.288;28.624;2023-12-28T05:35:05;9.78;;;5.06;;
60336;SDS011;46978;50.288;28.624;2023-12-28T05:36:07;13.20;;;6.45;;
60336;SDS011;46978;50.288;28.624;2023-12-28T05:37:10;11.64;;;5.15;;
60336;SDS011;46978;50.288;28.624;2023-12-28T05:38:11;10.30;;;5.27;;
60336;SDS011;46978;50.288;28.624;2023-12-28T05:39:13;10.68;;;5.54;;
60336;SDS011;46978;50.288;28.624;2023-12-28T05:40:16;11.63;;;5.89;;
60336;SDS011;46978;50.288;28.624;2023-12-28T05:41:18;10.14;;;5.35;;
60336;SDS011;46978;50.288;28.624;2023-12-28T05:42:20;9.98;;;5.45;;
60336;SDS011;46978;50.288;28.624;2023-12-28T05:43:21;13.11;;;5.34;;
60336;SDS011;46978;50.288;28.624;2023-12-28T05:44:23;12.73;;;5.66;;
60336;SDS011;46978;50.288;28.624;2023-12-28T05:45:24;8.98;;;5.45;;
60336;SDS011;46978;50.288;28.624;2023-12-28T05:46:26;9.62;;;4.72;;
60336;SDS011;46978;50.288;28.624;2023-12-28T05:47:28;8.79;;;4.98;;
60336;SDS011;46978;50.288;28.624;2023-12-28T05:48:30;11.74;;;4.77;;
60336;SDS011;46978;50.288;28.624;2023-12-28T05:49:31;11.25;;;4.80;;
60336;SDS011;46978;50.288;28.624;2023-12-28T05:50:33;10.89;;;5.89;;
60336;SDS011;46978;50.288;28.624;2023-12-28T05:51:38;8.44;;;4.79;;
60336;SDS011;46978;50.288;28.624;2023-12-28T05:52:40;9.36;;;4.73;;
60336;SDS011;46978;50.288;28.624;2023-12-28T05:53:42;9.37;;;5.53;;
60336;SDS011;46978;50.288;28.624;2023-12-28T05:54:44;12.53;;;5.61;;
60336;SDS011;46978;50.288;28.624;2023-12-28T05:55:46;9.25;;;5.08;;
60336;SDS011;46978;50.288;28.624;2023-12-28T05:56:48;11.97;;;5.51;;
60336;SDS011;46978;50.288;28.624;2023-12-28T05:57:49;9.25;;;5.16;;
60336;SDS011;46978;50.288;28.624;2023-12-28T05:58:51;10.01;;;5.54;;
60336;SDS011;46978;50.288;28.624;2023-12-28T05:59:52;12.44;;;5.24;;
60336;SDS011;46978;50.288;28.624;2023-12-28T06:00:55;10.36;;;5.09;;
60336;SDS011;46978;50.288;28.624;2023-12-28T06:01:57;11.24;;;5.41;;
60336;SDS011;46978;50.288;28.624;2023-12-28T06:03:00;11.68;;;5.84;;
60336;SDS011;46978;50.288;28.624;2023-12-28T06:04:02;8.76;;;4.76;;
60336;SDS011;46978;50.288;28.624;2023-12-28T06:05:04;10.07;;;5.04;;
60336;SDS011;46978;50.288;28.624;2023-12-28T06:06:07;10.35;;;5.27;;
60336;SDS011;46978;50.288;28.624;2023-12-28T06:07:09;10.97;;;5.20;;
60336;SDS011;46978;50.288;28.624;2023-12-28T06:08:10;10.46;;;5.66;;
60336;SDS011;46978;50.288;28.624;2023-12-28T06:09:12;13.01;;;5.81;;